Página principal
METAR-TAF:

METAR-TAF

Aeroportos :

Aeroporto Internacional Hato

Curaçao, Antilhas Neerlandesas

latitude: 12-12N, longitude: 068-58W, altura: 9 m

Observação actual do tempo

O boletim foi feito há 43 minutos, às 18:00 UTC
Vento 16 kt de este
Temperatura 29°C
Humidade 58%
Pressão 1015 hPa
Visibilidade 10 km ou mais

METAR: TNCC 231800Z AUTO 10016KT 9999 NCD 29/20 Q1015 NOSIG

Hora: 14:43 (18:43 UTC)

Previsão

O boletim foi feito há 8 horas e 43 minutos, às 10:00 UTC
Previsão válida de 23 às 12 UTC a 24 às 12 UTC
Vento 16 kt de este
Visibilidade 10 km ou mais
Nuvens dispersasa uma altura de 2000 ft
Temporariamente
de 23 às 12 UTC a 23 às 16 UTC
Nuvens fragmentadasa uma altura de 1500 ft

TAF: TNCC 231000Z 2312/2412 10016KT 9999 SCT020 TEMPO 2312/2316 BKN015

Observações e previsões do tempo de mais de 4000 aeroportos (mensagens METAR e TAF).

As estações disponíveis são os pontos amarelos e vermelhos sobre o mapa.

Mova o rato sobre o mapa para ver o nome da estação.

Depois clique no ponto para visualizar as observações e previsões meteorológicas.

Para alterar o mapa : clique nos botões verdes com uma cruz preta para aumentar o zoom; no botão verde com uma pitada de zoom; ou nas setas verdes para mapas adjacentes.


METAR-TAF: